sensor_id;sensor_type;location;lat;lon;timestamp;temperature;humidity
64855;DHT22;51321;50.428;8.378;2024-01-15T00:01:23;0.00;99.90
64855;DHT22;51321;50.428;8.378;2024-01-15T00:04:04;0.10;99.90
64855;DHT22;51321;50.428;8.378;2024-01-15T00:06:44;0.10;99.90
64855;DHT22;51321;50.428;8.378;2024-01-15T00:09:25;0.10;99.90
64855;DHT22;51321;50.428;8.378;2024-01-15T00:12:09;-0.10;99.90
64855;DHT22;51321;50.428;8.378;2024-01-15T00:14:54;-0.20;99.90
64855;DHT22;51321;50.428;8.378;2024-01-15T00:17:34;-0.20;99.90
64855;DHT22;51321;50.428;8.378;2024-01-15T00:20:15;-0.20;99.90
64855;DHT22;51321;50.428;8.378;2024-01-15T00:22:55;-0.10;99.90
64855;DHT22;51321;50.428;8.378;2024-01-15T00:25:36;-0.20;99.90
64855;DHT22;51321;50.428;8.378;2024-01-15T00:28:17;-0.10;99.90
64855;DHT22;51321;50.428;8.378;2024-01-15T00:30:58;0.00;99.90
64855;DHT22;51321;50.428;8.378;2024-01-15T00:33:39;0.00;99.90
64855;DHT22;51321;50.428;8.378;2024-01-15T00:36:19;0.00;99.90
64855;DHT22;51321;50.428;8.378;2024-01-15T00:39:00;-0.10;99.90
64855;DHT22;51321;50.428;8.378;2024-01-15T00:41:41;0.00;99.90
64855;DHT22;51321;50.428;8.378;2024-01-15T00:44:23;0.00;99.90
64855;DHT22;51321;50.428;8.378;2024-01-15T00:47:03;0.00;99.90
64855;DHT22;51321;50.428;8.378;2024-01-15T00:49:44;-0.10;99.90
64855;DHT22;51321;50.428;8.378;2024-01-15T00:52:24;0.00;99.90
64855;DHT22;51321;50.428;8.378;2024-01-15T00:55:06;0.00;99.90
64855;DHT22;51321;50.428;8.378;2024-01-15T00:57:46;0.00;99.90
64855;DHT22;51321;50.428;8.378;2024-01-15T01:00:28;0.00;99.90
64855;DHT22;51321;50.428;8.378;2024-01-15T01:03:09;0.00;99.90
64855;DHT22;51321;50.428;8.378;2024-01-15T01:05:49;0.00;99.90
64855;DHT22;51321;50.428;8.378;2024-01-15T01:08:30;-0.10;99.90
64855;DHT22;51321;50.428;8.378;2024-01-15T01:11:13;-0.10;99.90
64855;DHT22;51321;50.428;8.378;2024-01-15T01:13:53;-0.10;99.90
64855;DHT22;51321;50.428;8.378;2024-01-15T01:16:37;0.00;99.90
64855;DHT22;51321;50.428;8.378;2024-01-15T01:19:18;0.00;99.90
64855;DHT22;51321;50.428;8.378;2024-01-15T01:21:59;0.00;99.90
64855;DHT22;51321;50.428;8.378;2024-01-15T01:24:39;0.10;99.90
64855;DHT22;51321;50.428;8.378;2024-01-15T01:27:20;0.00;99.90
64855;DHT22;51321;50.428;8.378;2024-01-15T01:30:01;0.00;99.90
64855;DHT22;51321;50.428;8.378;2024-01-15T01:32:43;0.00;99.90
64855;DHT22;51321;50.428;8.378;2024-01-15T01:35:24;-0.10;99.90
64855;DHT22;51321;50.428;8.378;2024-01-15T01:38:04;-0.10;99.90
64855;DHT22;51321;50.428;8.378;2024-01-15T01:40:45;-0.10;99.90
64855;DHT22;51321;50.428;8.378;2024-01-15T01:43:26;-0.10;99.90
64855;DHT22;51321;50.428;8.378;2024-01-15T01:46:06;0.00;99.90
64855;DHT22;51321;50.428;8.378;2024-01-15T01:48:49;0.00;99.90
64855;DHT22;51321;50.428;8.378;2024-01-15T01:51:29;0.00;99.90
64855;DHT22;51321;50.428;8.378;2024-01-15T01:54:11;0.00;99.90
64855;DHT22;51321;50.428;8.378;2024-01-15T01:56:53;0.00;99.90
64855;DHT22;51321;50.428;8.378;2024-01-15T01:59:34;0.00;99.90
64855;DHT22;51321;50.428;8.378;2024-01-15T02:02:15;0.00;99.90
64855;DHT22;51321;50.428;8.378;2024-01-15T02:04:57;0.10;99.90
64855;DHT22;51321;50.428;8.378;2024-01-15T02:07:38;0.10;99.90
64855;DHT22;51321;50.428;8.378;2024-01-15T02:10:18;0.00;99.90
64855;DHT22;51321;50.428;8.378;2024-01-15T02:12:59;0.00;99.90
64855;DHT22;51321;50.428;8.378;2024-01-15T02:15:40;0.10;99.90
64855;DHT22;51321;50.428;8.378;2024-01-15T02:18:23;0.00;99.90
64855;DHT22;51321;50.428;8.378;2024-01-15T02:21:05;0.00;99.90
64855;DHT22;51321;50.428;8.378;2024-01-15T02:23:47;0.00;99.90
64855;DHT22;51321;50.428;8.378;2024-01-15T02:26:27;0.00;99.90
64855;DHT22;51321;50.428;8.378;2024-01-15T02:29:08;0.00;99.90
64855;DHT22;51321;50.428;8.378;2024-01-15T02:31:49;0.00;99.90
64855;DHT22;51321;50.428;8.378;2024-01-15T02:34:31;0.10;99.90
64855;DHT22;51321;50.428;8.378;2024-01-15T02:37:11;0.10;99.90
64855;DHT22;51321;50.428;8.378;2024-01-15T02:39:53;-0.10;99.90
64855;DHT22;51321;50.428;8.378;2024-01-15T02:42:34;0.00;99.90
64855;DHT22;51321;50.428;8.378;2024-01-15T02:45:15;0.00;99.90
64855;DHT22;51321;50.428;8.378;2024-01-15T02:47:57;-0.10;99.90
64855;DHT22;51321;50.428;8.378;2024-01-15T02:50:41;-0.10;99.90
64855;DHT22;51321;50.428;8.378;2024-01-15T02:53:28;-0.10;99.90
64855;DHT22;51321;50.428;8.378;2024-01-15T02:56:12;-0.10;99.90
64855;DHT22;51321;50.428;8.378;2024-01-15T02:58:52;-0.10;99.90
64855;DHT22;51321;50.428;8.378;2024-01-15T03:01:33;0.00;99.90
64855;DHT22;51321;50.428;8.378;2024-01-15T03:04:13;-0.10;99.90
64855;DHT22;51321;50.428;8.378;2024-01-15T03:06:54;-0.10;99.90
64855;DHT22;51321;50.428;8.378;2024-01-15T03:09:35;-0.20;99.90
64855;DHT22;51321;50.428;8.378;2024-01-15T03:12:16;-0.20;99.90
64855;DHT22;51321;50.428;8.378;2024-01-15T03:14:57;-0.20;99.90
64855;DHT22;51321;50.428;8.378;2024-01-15T03:17:37;-0.20;99.90
64855;DHT22;51321;50.428;8.378;2024-01-15T03:20:18;-0.10;99.90
64855;DHT22;51321;50.428;8.378;2024-01-15T03:22:58;-0.10;99.90
64855;DHT22;51321;50.428;8.378;2024-01-15T03:25:39;-0.10;99.90
64855;DHT22;51321;50.428;8.378;2024-01-15T03:28:21;-0.10;99.90
64855;DHT22;51321;50.428;8.378;2024-01-15T03:31:01;-0.10;99.90
64855;DHT22;51321;50.428;8.378;2024-01-15T03:33:41;-0.10;99.90
64855;DHT22;51321;50.428;8.378;2024-01-15T03:36:22;0.00;99.90
64855;DHT22;51321;50.428;8.378;2024-01-15T03:39:02;-0.10;99.90
64855;DHT22;51321;50.428;8.378;2024-01-15T03:41:43;-0.10;99.90
64855;DHT22;51321;50.428;8.378;2024-01-15T03:44:24;-0.10;99.90
64855;DHT22;51321;50.428;8.378;2024-01-15T03:47:05;-0.20;99.90
64855;DHT22;51321;50.428;8.378;2024-01-15T03:49:46;-0.20;99.90
64855;DHT22;51321;50.428;8.378;2024-01-15T03:52:26;-0.20;99.90
64855;DHT22;51321;50.428;8.378;2024-01-15T03:55:07;-0.20;99.90
64855;DHT22;51321;50.428;8.378;2024-01-15T03:57:48;-0.10;99.90
64855;DHT22;51321;50.428;8.378;2024-01-15T04:00:30;-0.10;99.90
64855;DHT22;51321;50.428;8.378;2024-01-15T04:03:10;-0.20;99.90
64855;DHT22;51321;50.428;8.378;2024-01-15T04:05:51;-0.20;99.90
64855;DHT22;51321;50.428;8.378;2024-01-15T04:08:31;-0.20;99.90
64855;DHT22;51321;50.428;8.378;2024-01-15T04:11:12;-0.20;99.90
64855;DHT22;51321;50.428;8.378;2024-01-15T04:13:52;-0.20;99.90
64855;DHT22;51321;50.428;8.378;2024-01-15T04:16:34;-0.20;99.90
64855;DHT22;51321;50.428;8.378;2024-01-15T04:19:14;-0.10;99.90
64855;DHT22;51321;50.428;8.378;2024-01-15T04:21:55;-0.20;99.90
64855;DHT22;51321;50.428;8.378;2024-01-15T04:24:35;-0.20;99.90
64855;DHT22;51321;50.428;8.378;2024-01-15T04:27:16;-0.30;99.90
64855;DHT22;51321;50.428;8.378;2024-01-15T04:29:56;-0.20;99.90
64855;DHT22;51321;50.428;8.378;2024-01-15T04:32:38;-0.20;99.90
64855;DHT22;51321;50.428;8.378;2024-01-15T04:35:18;-0.10;99.90
64855;DHT22;51321;50.428;8.378;2024-01-15T04:37:59;-0.10;99.90
64855;DHT22;51321;50.428;8.378;2024-01-15T04:40:40;-0.10;99.90
64855;DHT22;51321;50.428;8.378;2024-01-15T04:43:20;0.00;99.90
64855;DHT22;51321;50.428;8.378;2024-01-15T04:46:01;-0.10;99.90
64855;DHT22;51321;50.428;8.378;2024-01-15T04:48:43;0.00;99.90
64855;DHT22;51321;50.428;8.378;2024-01-15T04:51:23;0.00;99.90
64855;DHT22;51321;50.428;8.378;2024-01-15T04:54:04;0.00;99.90
64855;DHT22;51321;50.428;8.378;2024-01-15T04:56:44;-0.10;99.90
64855;DHT22;51321;50.428;8.378;2024-01-15T04:59:25;-0.10;99.90
64855;DHT22;51321;50.428;8.378;2024-01-15T05:02:06;-0.10;99.90
64855;DHT22;51321;50.428;8.378;2024-01-15T05:04:48;-0.10;99.90
64855;DHT22;51321;50.428;8.378;2024-01-15T05:07:28;-0.10;99.90
64855;DHT22;51321;50.428;8.378;2024-01-15T05:10:09;-0.10;99.90
64855;DHT22;51321;50.428;8.378;2024-01-15T05:12:49;-0.10;99.90
64855;DHT22;51321;50.428;8.378;2024-01-15T05:15:30;-0.10;99.90
64855;DHT22;51321;50.428;8.378;2024-01-15T05:18:10;-0.10;99.90
64855;DHT22;51321;50.428;8.378;2024-01-15T05:20:52;0.00;99.90
64855;DHT22;51321;50.428;8.378;2024-01-15T05:23:33;-0.10;99.90
64855;DHT22;51321;50.428;8.378;2024-01-15T05:26:13;-0.10;99.90
64855;DHT22;51321;50.428;8.378;2024-01-15T05:28:54;-0.10;99.90
64855;DHT22;51321;50.428;8.378;2024-01-15T05:31:35;0.00;99.90
64855;DHT22;51321;50.428;8.378;2024-01-15T05:34:16;0.00;99.90
64855;DHT22;51321;50.428;8.378;2024-01-15T05:36:58;0.00;99.90
64855;DHT22;51321;50.428;8.378;2024-01-15T05:39:38;0.00;99.90
64855;DHT22;51321;50.428;8.378;2024-01-15T05:42:19;0.00;99.90
64855;DHT22;51321;50.428;8.378;2024-01-15T05:44:59;0.00;99.90
64855;DHT22;51321;50.428;8.378;2024-01-15T05:47:42;-0.10;99.90
64855;DHT22;51321;50.428;8.378;2024-01-15T05:50:23;-0.10;99.90
64855;DHT22;51321;50.428;8.378;2024-01-15T05:53:05;-0.10;99.90
64855;DHT22;51321;50.428;8.378;2024-01-15T05:55:45;-0.20;99.90
64855;DHT22;51321;50.428;8.378;2024-01-15T05:58:26;-0.10;99.90
64855;DHT22;51321;50.428;8.378;2024-01-15T06:01:06;-0.10;99.90
64855;DHT22;51321;50.428;8.378;2024-01-15T06:03:47;-0.10;99.90
64855;DHT22;51321;50.428;8.378;2024-01-15T06:06:27;-0.10;99.90
64855;DHT22;51321;50.428;8.378;2024-01-15T06:09:09;-0.20;99.90
64855;DHT22;51321;50.428;8.378;2024-01-15T06:11:49;-0.10;99.90
64855;DHT22;51321;50.428;8.378;2024-01-15T06:14:30;0.00;99.90
64855;DHT22;51321;50.428;8.378;2024-01-15T06:17:10;0.00;99.90
64855;DHT22;51321;50.428;8.378;2024-01-15T06:19:51;0.00;99.90
64855;DHT22;51321;50.428;8.378;2024-01-15T06:22:31;0.10;99.90
64855;DHT22;51321;50.428;8.378;2024-01-15T06:25:14;0.00;99.90
64855;DHT22;51321;50.428;8.378;2024-01-15T06:27:54;0.00;99.90
64855;DHT22;51321;50.428;8.378;2024-01-15T06:30:35;0.10;99.90
64855;DHT22;51321;50.428;8.378;2024-01-15T06:33:16;0.20;99.90
64855;DHT22;51321;50.428;8.378;2024-01-15T06:35:56;-0.10;99.90
64855;DHT22;51321;50.428;8.378;2024-01-15T06:38:37;-0.10;99.90
64855;DHT22;51321;50.428;8.378;2024-01-15T06:41:18;-0.10;99.90
64855;DHT22;51321;50.428;8.378;2024-01-15T06:43:59;-0.10;99.90
64855;DHT22;51321;50.428;8.378;2024-01-15T06:46:42;0.00;99.90
64855;DHT22;51321;50.428;8.378;2024-01-15T06:49:23;-0.10;99.90
64855;DHT22;51321;50.428;8.378;2024-01-15T06:52:04;0.00;99.90
64855;DHT22;51321;50.428;8.378;2024-01-15T06:54:44;-0.10;99.90
64855;DHT22;51321;50.428;8.378;2024-01-15T06:57:26;0.00;99.90
64855;DHT22;51321;50.428;8.378;2024-01-15T07:00:08;0.00;99.90
64855;DHT22;51321;50.428;8.378;2024-01-15T07:02:48;0.00;99.90
64855;DHT22;51321;50.428;8.378;2024-01-15T07:05:29;-0.10;99.90
64855;DHT22;51321;50.428;8.378;2024-01-15T07:08:10;-0.20;99.90
64855;DHT22;51321;50.428;8.378;2024-01-15T07:10:51;-0.20;99.90
64855;DHT22;51321;50.428;8.378;2024-01-15T07:13:33;-0.10;99.90
64855;DHT22;51321;50.428;8.378;2024-01-15T07:16:13;-0.10;99.90
64855;DHT22;51321;50.428;8.378;2024-01-15T07:18:54;-0.10;99.90
64855;DHT22;51321;50.428;8.378;2024-01-15T07:21:34;0.00;99.90
64855;DHT22;51321;50.428;8.378;2024-01-15T07:24:15;0.00;99.90
64855;DHT22;51321;50.428;8.378;2024-01-15T07:26:56;0.10;99.90
64855;DHT22;51321;50.428;8.378;2024-01-15T07:29:37;0.20;99.90
64855;DHT22;51321;50.428;8.378;2024-01-15T07:32:18;0.10;99.90
64855;DHT22;51321;50.428;8.378;2024-01-15T07:34:59;0.10;99.90
64855;DHT22;51321;50.428;8.378;2024-01-15T07:37:40;0.10;99.90
64855;DHT22;51321;50.428;8.378;2024-01-15T07:40:20;0.20;99.90
64855;DHT22;51321;50.428;8.378;2024-01-15T07:43:01;0.20;99.90
64855;DHT22;51321;50.428;8.378;2024-01-15T07:45:43;0.20;99.90
64855;DHT22;51321;50.428;8.378;2024-01-15T07:48:24;0.30;99.90
64855;DHT22;51321;50.428;8.378;2024-01-15T07:51:05;0.30;99.90
64855;DHT22;51321;50.428;8.378;2024-01-15T07:53:45;0.40;99.90
64855;DHT22;51321;50.428;8.378;2024-01-15T07:56:26;0.40;99.90
64855;DHT22;51321;50.428;8.378;2024-01-15T07:59:07;0.30;99.90
64855;DHT22;51321;50.428;8.378;2024-01-15T08:01:49;0.40;99.90
64855;DHT22;51321;50.428;8.378;2024-01-15T08:04:29;0.30;99.90
64855;DHT22;51321;50.428;8.378;2024-01-15T08:07:10;0.30;99.90
64855;DHT22;51321;50.428;8.378;2024-01-15T08:09:52;0.30;99.90
64855;DHT22;51321;50.428;8.378;2024-01-15T08:12:32;0.40;99.90
64855;DHT22;51321;50.428;8.378;2024-01-15T08:15:13;0.40;99.90
64855;DHT22;51321;50.428;8.378;2024-01-15T08:17:55;0.40;99.90
64855;DHT22;51321;50.428;8.378;2024-01-15T08:20:35;0.40;99.90
64855;DHT22;51321;50.428;8.378;2024-01-15T08:23:16;0.50;99.90
64855;DHT22;51321;50.428;8.378;2024-01-15T08:25:58;0.50;99.90
64855;DHT22;51321;50.428;8.378;2024-01-15T08:28:38;0.70;99.90
64855;DHT22;51321;50.428;8.378;2024-01-15T08:31:19;0.70;99.90
64855;DHT22;51321;50.428;8.378;2024-01-15T08:34:01;0.60;99.90
64855;DHT22;51321;50.428;8.378;2024-01-15T08:36:41;0.60;99.90
64855;DHT22;51321;50.428;8.378;2024-01-15T08:39:22;0.60;99.90
64855;DHT22;51321;50.428;8.378;2024-01-15T08:42:03;0.70;99.90
64855;DHT22;51321;50.428;8.378;2024-01-15T08:44:44;0.70;99.90
64855;DHT22;51321;50.428;8.378;2024-01-15T08:47:24;0.70;99.90
64855;DHT22;51321;50.428;8.378;2024-01-15T08:50:07;0.80;99.90
64855;DHT22;51321;50.428;8.378;2024-01-15T08:52:49;0.80;99.90
64855;DHT22;51321;50.428;8.378;2024-01-15T08:55:29;0.80;99.90
64855;DHT22;51321;50.428;8.378;2024-01-15T08:58:10;0.90;99.90
64855;DHT22;51321;50.428;8.378;2024-01-15T09:00:51;1.00;99.90
64855;DHT22;51321;50.428;8.378;2024-01-15T09:03:31;1.00;99.90
64855;DHT22;51321;50.428;8.378;2024-01-15T09:06:14;1.10;99.90
64855;DHT22;51321;50.428;8.378;2024-01-15T09:08:55;1.10;99.90
64855;DHT22;51321;50.428;8.378;2024-01-15T09:11:36;1.30;99.90
64855;DHT22;51321;50.428;8.378;2024-01-15T09:14:16;1.30;99.90
64855;DHT22;51321;50.428;8.378;2024-01-15T09:16:56;1.40;99.90
64855;DHT22;51321;50.428;8.378;2024-01-15T09:19:37;1.50;99.90
64855;DHT22;51321;50.428;8.378;2024-01-15T09:22:20;1.70;99.90
64855;DHT22;51321;50.428;8.378;2024-01-15T09:25:01;1.60;99.90
64855;DHT22;51321;50.428;8.378;2024-01-15T09:27:41;1.70;99.90
64855;DHT22;51321;50.428;8.378;2024-01-15T09:30:22;1.70;99.90
64855;DHT22;51321;50.428;8.378;2024-01-15T09:33:03;1.80;99.90
64855;DHT22;51321;50.428;8.378;2024-01-15T09:35:44;1.70;99.90
64855;DHT22;51321;50.428;8.378;2024-01-15T09:38:26;1.70;99.90
64855;DHT22;51321;50.428;8.378;2024-01-15T09:41:06;1.80;99.90
64855;DHT22;51321;50.428;8.378;2024-01-15T09:43:47;1.70;99.90
64855;DHT22;51321;50.428;8.378;2024-01-15T09:46:28;1.80;99.90
64855;DHT22;51321;50.428;8.378;2024-01-15T09:49:09;1.80;99.90
64855;DHT22;51321;50.428;8.378;2024-01-15T09:51:50;2.00;99.90
64855;DHT22;51321;50.428;8.378;2024-01-15T09:54:32;2.10;99.90
64855;DHT22;51321;50.428;8.378;2024-01-15T09:57:13;2.10;99.90
64855;DHT22;51321;50.428;8.378;2024-01-15T09:59:55;2.20;99.90
64855;DHT22;51321;50.428;8.378;2024-01-15T10:02:38;2.30;99.90
64855;DHT22;51321;50.428;8.378;2024-01-15T10:05:19;2.40;99.90
64855;DHT22;51321;50.428;8.378;2024-01-15T10:08:01;2.50;99.90
64855;DHT22;51321;50.428;8.378;2024-01-15T10:10:43;2.50;99.90
64855;DHT22;51321;50.428;8.378;2024-01-15T10:13:24;2.70;99.90
64855;DHT22;51321;50.428;8.378;2024-01-15T10:16:05;2.70;99.90
64855;DHT22;51321;50.428;8.378;2024-01-15T10:18:45;2.80;99.90
64855;DHT22;51321;50.428;8.378;2024-01-15T10:21:26;2.90;99.90
64855;DHT22;51321;50.428;8.378;2024-01-15T10:24:06;3.20;99.90
64855;DHT22;51321;50.428;8.378;2024-01-15T10:26:48;3.30;99.90
64855;DHT22;51321;50.428;8.378;2024-01-15T10:29:29;3.30;99.90
64855;DHT22;51321;50.428;8.378;2024-01-15T10:32:11;3.10;99.90
64855;DHT22;51321;50.428;8.378;2024-01-15T10:34:52;3.00;99.90
64855;DHT22;51321;50.428;8.378;2024-01-15T10:37:33;2.80;99.90
64855;DHT22;51321;50.428;8.378;2024-01-15T10:40:14;2.60;99.90
64855;DHT22;51321;50.428;8.378;2024-01-15T10:42:56;2.60;99.90
64855;DHT22;51321;50.428;8.378;2024-01-15T10:45:37;2.60;99.90
64855;DHT22;51321;50.428;8.378;2024-01-15T10:48:18;2.70;99.90
64855;DHT22;51321;50.428;8.378;2024-01-15T10:50:59;3.20;99.90
64855;DHT22;51321;50.428;8.378;2024-01-15T10:53:43;3.30;99.90
64855;DHT22;51321;50.428;8.378;2024-01-15T10:56:25;3.50;99.90
64855;DHT22;51321;50.428;8.378;2024-01-15T10:59:08;3.60;99.90
64855;DHT22;51321;50.428;8.378;2024-01-15T11:01:51;3.60;99.90
64855;DHT22;51321;50.428;8.378;2024-01-15T11:04:33;3.70;99.90
64855;DHT22;51321;50.428;8.378;2024-01-15T11:07:13;3.70;99.90
64855;DHT22;51321;50.428;8.378;2024-01-15T11:09:54;3.50;99.90
64855;DHT22;51321;50.428;8.378;2024-01-15T11:12:35;3.40;99.90
64855;DHT22;51321;50.428;8.378;2024-01-15T11:15:19;3.50;99.90
64855;DHT22;51321;50.428;8.378;2024-01-15T11:18:01;3.50;99.90
64855;DHT22;51321;50.428;8.378;2024-01-15T11:21:20;3.50;99.90
64855;DHT22;51321;50.428;8.378;2024-01-15T11:24:02;3.30;99.90
64855;DHT22;51321;50.428;8.378;2024-01-15T11:26:46;3.30;99.90
64855;DHT22;51321;50.428;8.378;2024-01-15T11:29:31;3.40;99.90
64855;DHT22;51321;50.428;8.378;2024-01-15T11:32:14;3.40;99.90
64855;DHT22;51321;50.428;8.378;2024-01-15T11:34:58;3.30;99.90
64855;DHT22;51321;50.428;8.378;2024-01-15T11:37:58;3.30;99.90
64855;DHT22;51321;50.428;8.378;2024-01-15T11:40:41;3.30;99.90
64855;DHT22;51321;50.428;8.378;2024-01-15T11:43:23;3.20;99.90
64855;DHT22;51321;50.428;8.378;2024-01-15T11:46:03;3.20;99.90
64855;DHT22;51321;50.428;8.378;2024-01-15T11:48:45;3.00;99.90
64855;DHT22;51321;50.428;8.378;2024-01-15T11:51:29;3.20;99.90
64855;DHT22;51321;50.428;8.378;2024-01-15T11:54:11;3.20;99.90
64855;DHT22;51321;50.428;8.378;2024-01-15T11:56:53;3.20;99.90
64855;DHT22;51321;50.428;8.378;2024-01-15T11:59:34;3.10;99.90
64855;DHT22;51321;50.428;8.378;2024-01-15T12:02:15;3.10;99.90
64855;DHT22;51321;50.428;8.378;2024-01-15T12:04:56;3.00;99.90
64855;DHT22;51321;50.428;8.378;2024-01-15T12:07:37;2.70;99.90
64855;DHT22;51321;50.428;8.378;2024-01-15T12:10:18;2.40;99.90
64855;DHT22;51321;50.428;8.378;2024-01-15T12:13:02;2.20;99.90
64855;DHT22;51321;50.428;8.378;2024-01-15T12:15:45;2.20;99.90
64855;DHT22;51321;50.428;8.378;2024-01-15T12:18:26;2.20;99.90
64855;DHT22;51321;50.428;8.378;2024-01-15T12:21:09;2.40;99.90
64855;DHT22;51321;50.428;8.378;2024-01-15T12:23:50;2.50;99.90
64855;DHT22;51321;50.428;8.378;2024-01-15T12:26:32;2.70;99.90
64855;DHT22;51321;50.428;8.378;2024-01-15T12:29:12;2.60;99.90
64855;DHT22;51321;50.428;8.378;2024-01-15T12:31:53;2.70;99.90
64855;DHT22;51321;50.428;8.378;2024-01-15T12:34:34;2.70;99.90
64855;DHT22;51321;50.428;8.378;2024-01-15T12:37:18;2.70;99.90
64855;DHT22;51321;50.428;8.378;2024-01-15T12:39:58;2.70;99.90
64855;DHT22;51321;50.428;8.378;2024-01-15T12:42:40;2.50;99.90
64855;DHT22;51321;50.428;8.378;2024-01-15T12:45:20;2.40;99.90
64855;DHT22;51321;50.428;8.378;2024-01-15T12:48:01;2.30;99.90
64855;DHT22;51321;50.428;8.378;2024-01-15T12:50:43;2.30;99.90
64855;DHT22;51321;50.428;8.378;2024-01-15T12:53:26;2.30;99.90
64855;DHT22;51321;50.428;8.378;2024-01-15T12:56:06;2.40;99.90
64855;DHT22;51321;50.428;8.378;2024-01-15T12:58:47;2.50;99.90
64855;DHT22;51321;50.428;8.378;2024-01-15T13:01:28;2.60;99.90
64855;DHT22;51321;50.428;8.378;2024-01-15T13:04:08;2.50;99.90
64855;DHT22;51321;50.428;8.378;2024-01-15T13:06:50;2.50;99.90
64855;DHT22;51321;50.428;8.378;2024-01-15T13:09:32;2.50;99.90
64855;DHT22;51321;50.428;8.378;2024-01-15T13:12:12;2.40;99.90
64855;DHT22;51321;50.428;8.378;2024-01-15T13:14:53;2.50;99.90
64855;DHT22;51321;50.428;8.378;2024-01-15T13:17:34;2.50;99.90
64855;DHT22;51321;50.428;8.378;2024-01-15T13:20:14;2.60;99.90
64855;DHT22;51321;50.428;8.378;2024-01-15T13:22:55;2.60;99.90
64855;DHT22;51321;50.428;8.378;2024-01-15T13:25:37;2.50;99.90
64855;DHT22;51321;50.428;8.378;2024-01-15T13:28:17;2.40;99.90
64855;DHT22;51321;50.428;8.378;2024-01-15T13:30:58;2.40;99.90
64855;DHT22;51321;50.428;8.378;2024-01-15T13:33:38;2.30;99.90
64855;DHT22;51321;50.428;8.378;2024-01-15T13:36:19;2.50;99.90
64855;DHT22;51321;50.428;8.378;2024-01-15T13:39:00;2.70;99.90
64855;DHT22;51321;50.428;8.378;2024-01-15T13:41:42;2.70;99.90
64855;DHT22;51321;50.428;8.378;2024-01-15T13:44:23;2.60;99.90
64855;DHT22;51321;50.428;8.378;2024-01-15T13:47:04;2.80;99.90
64855;DHT22;51321;50.428;8.378;2024-01-15T13:49:45;2.70;99.90
64855;DHT22;51321;50.428;8.378;2024-01-15T13:52:26;2.70;99.90
64855;DHT22;51321;50.428;8.378;2024-01-15T13:55:08;2.50;99.90
64855;DHT22;51321;50.428;8.378;2024-01-15T13:57:50;2.30;99.90
64855;DHT22;51321;50.428;8.378;2024-01-15T14:00:31;2.20;99.90
64855;DHT22;51321;50.428;8.378;2024-01-15T14:03:11;2.10;99.90
64855;DHT22;51321;50.428;8.378;2024-01-15T14:05:51;2.20;99.90
64855;DHT22;51321;50.428;8.378;2024-01-15T14:08:32;2.10;99.90
64855;DHT22;51321;50.428;8.378;2024-01-15T14:11:13;2.10;99.90
64855;DHT22;51321;50.428;8.378;2024-01-15T14:13:55;2.10;99.90
64855;DHT22;51321;50.428;8.378;2024-01-15T14:16:36;2.00;99.90
64855;DHT22;51321;50.428;8.378;2024-01-15T14:19:16;2.10;99.90
64855;DHT22;51321;50.428;8.378;2024-01-15T14:21:58;2.10;99.90
64855;DHT22;51321;50.428;8.378;2024-01-15T14:24:39;2.00;99.90
64855;DHT22;51321;50.428;8.378;2024-01-15T14:27:19;2.00;99.90
64855;DHT22;51321;50.428;8.378;2024-01-15T14:30:02;1.90;99.90
64855;DHT22;51321;50.428;8.378;2024-01-15T14:32:44;2.00;99.90
64855;DHT22;51321;50.428;8.378;2024-01-15T14:35:25;2.00;99.90
64855;DHT22;51321;50.428;8.378;2024-01-15T14:38:05;2.00;99.90
64855;DHT22;51321;50.428;8.378;2024-01-15T14:40:46;2.00;99.90
64855;DHT22;51321;50.428;8.378;2024-01-15T14:43:27;2.00;99.90
64855;DHT22;51321;50.428;8.378;2024-01-15T14:46:09;2.00;99.90
64855;DHT22;51321;50.428;8.378;2024-01-15T14:48:50;2.00;99.90
64855;DHT22;51321;50.428;8.378;2024-01-15T14:51:31;2.10;99.90
64855;DHT22;51321;50.428;8.378;2024-01-15T14:54:11;2.00;99.90
64855;DHT22;51321;50.428;8.378;2024-01-15T14:56:52;1.90;99.90
64855;DHT22;51321;50.428;8.378;2024-01-15T14:59:32;2.00;99.90
64855;DHT22;51321;50.428;8.378;2024-01-15T15:02:14;2.00;99.90
64855;DHT22;51321;50.428;8.378;2024-01-15T15:04:55;2.00;99.90
64855;DHT22;51321;50.428;8.378;2024-01-15T15:07:36;2.00;99.90
64855;DHT22;51321;50.428;8.378;2024-01-15T15:10:17;1.90;99.90
64855;DHT22;51321;50.428;8.378;2024-01-15T15:12:58;1.90;99.90
64855;DHT22;51321;50.428;8.378;2024-01-15T15:15:38;1.90;99.90
64855;DHT22;51321;50.428;8.378;2024-01-15T15:18:20;1.90;99.90
64855;DHT22;51321;50.428;8.378;2024-01-15T15:21:01;1.90;99.90
64855;DHT22;51321;50.428;8.378;2024-01-15T15:23:42;2.00;99.90
64855;DHT22;51321;50.428;8.378;2024-01-15T15:26:23;1.90;99.90
64855;DHT22;51321;50.428;8.378;2024-01-15T15:29:03;1.90;99.90
64855;DHT22;51321;50.428;8.378;2024-01-15T15:31:44;1.90;99.90
64855;DHT22;51321;50.428;8.378;2024-01-15T15:34:26;1.80;99.90
64855;DHT22;51321;50.428;8.378;2024-01-15T15:37:07;1.80;99.90
64855;DHT22;51321;50.428;8.378;2024-01-15T15:39:48;1.80;99.90
64855;DHT22;51321;50.428;8.378;2024-01-15T15:42:28;1.80;99.90
64855;DHT22;51321;50.428;8.378;2024-01-15T15:45:09;1.70;99.90
64855;DHT22;51321;50.428;8.378;2024-01-15T15:47:50;1.70;99.90
64855;DHT22;51321;50.428;8.378;2024-01-15T15:50:32;1.70;99.90
64855;DHT22;51321;50.428;8.378;2024-01-15T15:53:12;1.70;99.90
64855;DHT22;51321;50.428;8.378;2024-01-15T15:55:52;1.70;99.90
64855;DHT22;51321;50.428;8.378;2024-01-15T15:58:33;1.70;99.90
64855;DHT22;51321;50.428;8.378;2024-01-15T16:01:13;1.60;99.90
64855;DHT22;51321;50.428;8.378;2024-01-15T16:03:53;1.70;99.90
64855;DHT22;51321;50.428;8.378;2024-01-15T16:06:35;1.70;99.90
64855;DHT22;51321;50.428;8.378;2024-01-15T16:09:15;1.70;99.90
64855;DHT22;51321;50.428;8.378;2024-01-15T16:11:56;1.70;99.90
64855;DHT22;51321;50.428;8.378;2024-01-15T16:14:36;1.70;99.90
64855;DHT22;51321;50.428;8.378;2024-01-15T16:17:17;1.70;99.90
64855;DHT22;51321;50.428;8.378;2024-01-15T16:19:57;1.70;99.90
64855;DHT22;51321;50.428;8.378;2024-01-15T16:22:39;1.60;99.90
64855;DHT22;51321;50.428;8.378;2024-01-15T16:25:20;1.60;99.90
64855;DHT22;51321;50.428;8.378;2024-01-15T16:28:00;1.60;99.90
64855;DHT22;51321;50.428;8.378;2024-01-15T16:30:41;1.60;99.90
64855;DHT22;51321;50.428;8.378;2024-01-15T16:33:21;1.50;99.90
64855;DHT22;51321;50.428;8.378;2024-01-15T16:36:02;1.50;99.90
64855;DHT22;51321;50.428;8.378;2024-01-15T16:38:44;1.50;99.90
64855;DHT22;51321;50.428;8.378;2024-01-15T16:41:24;1.60;99.90
64855;DHT22;51321;50.428;8.378;2024-01-15T16:44:04;1.60;99.90
64855;DHT22;51321;50.428;8.378;2024-01-15T16:46:45;1.50;99.90
64855;DHT22;51321;50.428;8.378;2024-01-15T16:49:25;1.60;99.90
64855;DHT22;51321;50.428;8.378;2024-01-15T16:52:06;1.50;99.90
64855;DHT22;51321;50.428;8.378;2024-01-15T16:54:48;1.50;99.90
64855;DHT22;51321;50.428;8.378;2024-01-15T16:57:29;1.50;99.90
64855;DHT22;51321;50.428;8.378;2024-01-15T17:00:10;1.50;99.90
64855;DHT22;51321;50.428;8.378;2024-01-15T17:02:51;1.50;99.90
64855;DHT22;51321;50.428;8.378;2024-01-15T17:05:32;1.50;99.90
64855;DHT22;51321;50.428;8.378;2024-01-15T17:08:12;1.50;99.90
64855;DHT22;51321;50.428;8.378;2024-01-15T17:10:54;1.50;99.90